createdAt,value
2023-04-14T00:02:26.036Z,-4.47
2023-04-14T00:07:28.723Z,-4.72
2023-04-14T00:12:31.497Z,-4.83
2023-04-14T00:17:34.365Z,-4.93
2023-04-14T00:22:37.199Z,-5.03
2023-04-14T00:27:39.935Z,-5.00
2023-04-14T00:32:43.882Z,-5.04
2023-04-14T00:37:46.644Z,-5.15
2023-04-14T00:42:49.458Z,-5.23
2023-04-14T00:47:52.474Z,-5.31
2023-04-14T00:52:55.417Z,-5.28
2023-04-14T00:57:58.156Z,-5.09
2023-04-14T01:03:01.079Z,-4.98
2023-04-14T01:08:04.564Z,-4.84
2023-04-14T01:13:27.673Z,-5.04
2023-04-14T01:18:53.490Z,-4.90
2023-04-14T01:24:03.488Z,-4.82
2023-04-14T01:29:43.575Z,-4.81
2023-04-14T01:34:56.095Z,-5.17
2023-04-14T01:40:05.872Z,-5.40
2023-04-14T01:45:17.455Z,-5.47
2023-04-14T01:50:21.465Z,-5.56
2023-04-14T01:55:24.570Z,-5.70
2023-04-14T02:00:28.177Z,-5.76
2023-04-14T02:05:32.807Z,-5.53
2023-04-14T02:10:35.289Z,-5.48
2023-04-14T02:15:40.359Z,-5.90
2023-04-14T02:20:45.334Z,-6.16
2023-04-14T02:26:11.688Z,-6.31
2023-04-14T02:31:16.941Z,-6.03
2023-04-14T02:36:24.095Z,-5.86
2023-04-14T02:41:29.415Z,-5.89
2023-04-14T02:46:35.980Z,-5.85
2023-04-14T02:51:39.444Z,-5.88
2023-04-14T02:56:42.479Z,-6.37
2023-04-14T03:01:46.182Z,-6.38
2023-04-14T03:06:49.082Z,-5.96
2023-04-14T03:11:54.336Z,-5.62
2023-04-14T03:16:58.310Z,-5.56
2023-04-14T03:22:01.525Z,-5.05
2023-04-14T03:27:15.128Z,-5.03
2023-04-14T03:32:20.013Z,-4.81
2023-04-14T03:37:26.007Z,-4.72
2023-04-14T03:42:29.972Z,-4.98
2023-04-14T03:47:32.993Z,-4.61
2023-04-14T03:52:37.464Z,-4.60
2023-04-14T03:57:40.876Z,-3.81
2023-04-14T04:02:45.551Z,-3.53
2023-04-14T04:07:50.367Z,-3.51
2023-04-14T04:12:53.755Z,-4.18
2023-04-14T04:17:58.562Z,-4.63
2023-04-14T04:23:02.439Z,-4.75
2023-04-14T04:28:05.751Z,-4.58
2023-04-14T04:33:09.995Z,-4.47
2023-04-14T04:38:13.440Z,-4.31
2023-04-14T04:43:19.907Z,-4.01
2023-04-14T04:48:22.760Z,-4.04
2023-04-14T04:53:25.790Z,-4.42
2023-04-14T04:58:28.525Z,-4.11
2023-04-14T05:03:31.280Z,-3.84
2023-04-14T05:08:34.176Z,-3.90
2023-04-14T05:13:36.905Z,-3.46
2023-04-14T05:18:41.028Z,-3.63
2023-04-14T05:23:44.962Z,-3.80
2023-04-14T05:28:47.960Z,-3.52
2023-04-14T05:33:50.700Z,-3.55
2023-04-14T05:38:53.365Z,-3.18
2023-04-14T05:43:56.201Z,-3.06
2023-04-14T05:48:59.402Z,-2.37
2023-04-14T05:54:02.434Z,-2.33
2023-04-14T05:59:05.257Z,-2.94
2023-04-14T06:04:08.373Z,-2.82
2023-04-14T06:09:11.564Z,-2.75
2023-04-14T06:14:14.442Z,-3.19
2023-04-14T06:19:19.098Z,-3.73
2023-04-14T06:24:21.855Z,-4.14
2023-04-14T06:29:24.641Z,-4.76
2023-04-14T06:34:27.526Z,-5.34
2023-04-14T06:39:30.882Z,-5.22
2023-04-14T06:44:33.653Z,-5.12
2023-04-14T06:49:37.523Z,-5.29
2023-04-14T06:54:40.386Z,-5.17
2023-04-14T06:59:43.256Z,-5.11
2023-04-14T07:04:46.168Z,-5.11
2023-04-14T07:09:49.077Z,-5.21
2023-04-14T07:14:52.561Z,-5.16
2023-04-14T07:19:55.763Z,-5.19
2023-04-14T07:24:58.635Z,-5.10
2023-04-14T07:30:01.560Z,-5.16
2023-04-14T07:35:06.347Z,-5.23
2023-04-14T07:40:09.609Z,-5.15
2023-04-14T07:45:12.473Z,-5.07
2023-04-14T07:50:17.175Z,-4.93
2023-04-14T07:55:22.132Z,-4.80
2023-04-14T08:00:25.075Z,-4.76
2023-04-14T08:05:28.290Z,-4.73
2023-04-14T08:10:31.353Z,-4.56
2023-04-14T08:15:34.269Z,-4.47
2023-04-14T08:20:38.482Z,-4.49
2023-04-14T08:25:42.624Z,-4.36
2023-04-14T08:30:45.903Z,-4.24
2023-04-14T08:35:57.881Z,-4.26
2023-04-14T08:41:05.324Z,-4.51
2023-04-14T08:46:09.089Z,-4.45
2023-04-14T08:51:30.357Z,-4.64
2023-04-14T08:56:39.010Z,-4.67
2023-04-14T09:01:42.102Z,-4.67
2023-04-14T09:06:45.024Z,-4.64
2023-04-14T09:11:48.919Z,-4.89
2023-04-14T09:16:54.252Z,-4.90
2023-04-14T09:21:57.321Z,-5.08
2023-04-14T09:27:08.206Z,-5.04
2023-04-14T09:32:12.957Z,-4.95
2023-04-14T09:37:16.665Z,-5.16
2023-04-14T09:42:19.943Z,-5.20
2023-04-14T09:47:24.347Z,-5.17
2023-04-14T09:52:48.823Z,-5.21
2023-04-14T09:57:52.884Z,-5.31
2023-04-14T10:02:58.478Z,-5.24
2023-04-14T10:08:05.736Z,-5.30
2023-04-14T10:13:08.826Z,-5.30
2023-04-14T10:18:12.119Z,-5.24
2023-04-14T10:23:15.275Z,-5.41
2023-04-14T10:28:18.275Z,-5.49
2023-04-14T10:33:21.459Z,-5.68
2023-04-14T10:38:37.770Z,-5.83
2023-04-14T10:43:42.006Z,-6.00
2023-04-14T10:48:49.683Z,-5.93
2023-04-14T10:53:56.066Z,-5.95
2023-04-14T10:58:59.782Z,-6.04
2023-04-14T11:04:21.806Z,-6.22
2023-04-14T11:09:33.198Z,-6.19
2023-04-14T11:14:36.713Z,-6.32
2023-04-14T11:19:40.606Z,-6.38
2023-04-14T11:24:44.168Z,-6.50
2023-04-14T11:29:49.063Z,-6.69
2023-04-14T11:34:51.968Z,-6.80
2023-04-14T11:39:54.800Z,-6.89
2023-04-14T11:44:58.966Z,-7.07
2023-04-14T11:50:03.039Z,-7.04
2023-04-14T11:55:06.916Z,-7.23
2023-04-14T12:00:15.007Z,-7.35
2023-04-14T12:05:31.629Z,-7.49
2023-04-14T12:10:34.887Z,-7.52
2023-04-14T12:15:39.675Z,-7.68
2023-04-14T12:21:07.498Z,-7.90
2023-04-14T12:26:13.033Z,-7.93
2023-04-14T12:31:16.440Z,-8.07
2023-04-14T12:36:19.482Z,-8.21
2023-04-14T12:41:23.713Z,-8.28
2023-04-14T12:46:27.508Z,-8.37
2023-04-14T12:51:39.551Z,-8.58
2023-04-14T12:56:43.140Z,-8.68
2023-04-14T13:01:46.031Z,-8.77
2023-04-14T13:06:49.127Z,-8.99
2023-04-14T13:11:52.262Z,-9.09
2023-04-14T13:16:56.133Z,-9.30
2023-04-14T13:21:59.120Z,-9.42
2023-04-14T13:27:02.151Z,-9.62
2023-04-14T13:32:10.450Z,-9.80
2023-04-14T13:37:13.359Z,-9.85
2023-04-14T13:42:16.234Z,-10.00
2023-04-14T13:47:19.440Z,-10.12
2023-04-14T13:52:22.372Z,-10.20
2023-04-14T13:57:25.187Z,-10.31
2023-04-14T14:02:28.111Z,-10.35
2023-04-14T14:07:30.977Z,-10.46
2023-04-14T14:12:33.825Z,-10.53
2023-04-14T14:17:37.716Z,-10.62
2023-04-14T14:22:40.824Z,-10.69
2023-04-14T14:27:45.288Z,-10.77
2023-04-14T14:32:48.206Z,-10.84
2023-04-14T14:37:51.180Z,-10.94
2023-04-14T14:42:54.065Z,-10.85
2023-04-14T14:47:57.107Z,-10.84
2023-04-14T14:52:59.918Z,-10.81
2023-04-14T14:58:03.983Z,-10.91
2023-04-14T15:03:07.231Z,-11.03
2023-04-14T15:08:10.304Z,-11.18
2023-04-14T15:13:13.336Z,-11.22
2023-04-14T15:18:16.497Z,-11.25
2023-04-14T15:23:19.261Z,-11.40
2023-04-14T15:28:22.209Z,-11.31
2023-04-14T15:33:24.894Z,-11.40
2023-04-14T15:38:27.790Z,-11.40
2023-04-14T15:43:30.563Z,-11.55
2023-04-14T15:48:33.386Z,-11.71
2023-04-14T15:53:36.384Z,-11.93
2023-04-14T15:58:39.235Z,-11.70
2023-04-14T16:03:42.426Z,-11.66
2023-04-14T16:08:45.503Z,-11.74
2023-04-14T16:13:48.250Z,-11.77
2023-04-14T16:18:51.344Z,-11.83
2023-04-14T16:23:54.010Z,-11.87
2023-04-14T16:28:57.017Z,-11.93
2023-04-14T16:34:00.109Z,-11.96
2023-04-14T16:39:03.463Z,-11.87
2023-04-14T16:44:06.443Z,-11.84
2023-04-14T16:49:09.268Z,-11.90
2023-04-14T16:54:12.236Z,-11.92
2023-04-14T16:59:15.098Z,-11.89
2023-04-14T17:04:18.322Z,-11.66
2023-04-14T17:09:21.219Z,-11.45
2023-04-14T17:14:24.024Z,-11.31
2023-04-14T17:19:26.991Z,-11.24
2023-04-14T17:24:30.791Z,-11.21
2023-04-14T17:29:33.538Z,-11.24
2023-04-14T17:34:36.350Z,-11.44
2023-04-14T17:39:39.273Z,-11.52
2023-04-14T17:44:42.228Z,-11.49
2023-04-14T17:49:45.065Z,-11.45
2023-04-14T17:54:52.808Z,-11.48
2023-04-14T17:59:55.550Z,-11.31
2023-04-14T18:04:58.666Z,-11.29
2023-04-14T18:10:01.457Z,-11.29
2023-04-14T18:15:07.633Z,-11.21
2023-04-14T18:20:14.153Z,-11.27
2023-04-14T18:25:18.734Z,-11.30
2023-04-14T18:30:23.043Z,-11.29
2023-04-14T18:35:25.827Z,-11.29
2023-04-14T18:40:28.737Z,-11.28
2023-04-14T18:45:31.539Z,-11.26
2023-04-14T18:50:34.407Z,-11.40
2023-04-14T18:55:45.205Z,-11.49
2023-04-14T19:00:48.952Z,-11.73
2023-04-14T19:05:51.781Z,-11.90
2023-04-14T19:10:54.534Z,-12.01
2023-04-14T19:16:12.874Z,-12.18
2023-04-14T19:21:15.772Z,-12.33
2023-04-14T19:26:19.913Z,-12.52
2023-04-14T19:31:22.699Z,-12.65
2023-04-14T19:36:25.575Z,-12.73
2023-04-14T19:41:28.703Z,-12.78
2023-04-14T19:46:31.838Z,-12.91
2023-04-14T19:51:35.403Z,-12.78
2023-04-14T19:56:38.282Z,-12.79
2023-04-14T20:01:41.382Z,-12.81
2023-04-14T20:06:44.113Z,-12.92
2023-04-14T20:11:47.306Z,-13.18
2023-04-14T20:16:50.515Z,-13.61
2023-04-14T20:21:53.156Z,-13.89
2023-04-14T20:26:55.858Z,-14.12
2023-04-14T20:31:58.922Z,-14.28
2023-04-14T20:37:01.786Z,-14.44
2023-04-14T20:42:04.527Z,-14.53
2023-04-14T20:47:08.686Z,-14.60
2023-04-14T20:52:11.369Z,-14.71
2023-04-14T20:57:14.282Z,-14.77
2023-04-14T21:02:17.123Z,-14.87
2023-04-14T21:07:19.846Z,-14.95
2023-04-14T21:12:22.599Z,-14.99
2023-04-14T21:17:25.608Z,-14.92
2023-04-14T21:22:28.298Z,-14.95
2023-04-14T21:27:31.083Z,-14.93
2023-04-14T21:32:34.548Z,-14.91
2023-04-14T21:37:37.205Z,-14.97
2023-04-14T21:42:39.871Z,-15.05
2023-04-14T21:47:42.722Z,-15.07
2023-04-14T21:52:45.539Z,-15.06
2023-04-14T21:57:49.975Z,-15.13
2023-04-14T22:02:53.483Z,-15.21
2023-04-14T22:07:56.165Z,-15.26
2023-04-14T22:13:00.111Z,-15.27
2023-04-14T22:18:02.851Z,-15.29
2023-04-14T22:23:05.998Z,-15.37
2023-04-14T22:28:09.247Z,-15.53
2023-04-14T22:33:12.396Z,-15.54
2023-04-14T22:38:15.587Z,-15.62
2023-04-14T22:43:18.346Z,-15.68
2023-04-14T22:48:21.237Z,-15.79
2023-04-14T22:53:24.044Z,-15.83
2023-04-14T22:58:26.806Z,-15.81
2023-04-14T23:03:29.603Z,-15.89
2023-04-14T23:08:32.359Z,-15.91
2023-04-14T23:13:35.071Z,-15.92
2023-04-14T23:18:39.873Z,-15.93
2023-04-14T23:23:43.467Z,-15.99
2023-04-14T23:28:46.329Z,-16.00
2023-04-14T23:33:51.297Z,-16.00
2023-04-14T23:38:55.161Z,-16.01
2023-04-14T23:43:58.018Z,-15.93
2023-04-14T23:49:03.089Z,-15.91
2023-04-14T23:54:23.712Z,-15.86
2023-04-14T23:59:26.753Z,-15.80
